This is the latest recevied weather packets stored in our database for station/object KQ7A. If no packets are shown the sender has not sent any weather packets the latest 10 day(s).
| Time | Temp. | Humidity | Pressure | Rain* | Wind** | Luminosity | Snow |
|---|---|---|---|---|---|---|---|
| 1777347011 | 6.11° C | 57% | 1016.4 hPa | 0 mm | - | 0 W/m² | - |
| 1777346708 | 6.11° C | 54% | 1016.4 hPa | 0 mm | - | 0 W/m² | - |
| 1777346403 | 6.11° C | 49% | 1016.6 hPa | 0 mm | - | 0 W/m² | - |
| 1777346101 | 6.11° C | 51% | 1016.2 hPa | 0 mm | - | 0 W/m² | - |
| 1777345798 | 6.67° C | 51% | 1016.3 hPa | 0 mm | - | 0 W/m² | - |
| 1777345495 | 7.22° C | 50% | 1016 hPa | 0 mm | - | 0 W/m² | - |
| 1777345191 | 7.78° C | 48% | 1016 hPa | 0 mm | - | 0 W/m² | - |
| 1777344888 | 6.67° C | 50% | 1016 hPa | 0 mm | - | 0 W/m² | - |
| 1777344281 | 7.22° C | 52% | 1015.6 hPa | 0 mm | - | 3 W/m² | - |
| 1777343978 | 7.22° C | 52% | 1015.8 hPa | 0 mm | - | 5 W/m² | - |
| 1777343676 | 7.22° C | 54% | 1015.5 hPa | 0 mm | - | 8 W/m² | - |
| 1777343373 | 7.78° C | 53% | 1015.4 hPa | 0 mm | - | 13 W/m² | - |
| 1777343072 | 8.33° C | 55% | 1015.4 hPa | 0 mm | - | 16 W/m² | - |
| 1777342465 | 10° C | 43% | 1015 hPa | 0 mm | - | 22 W/m² | - |
| 1777342162 | 10° C | 41% | 1015.3 hPa | 0 mm | - | 26 W/m² | - |
| 1777341858 | 10.56° C | 41% | 1015.1 hPa | 0 mm | - | 27 W/m² | - |
| 1777341554 | 10.56° C | 37% | 1015.1 hPa | 0 mm | - | 33 W/m² | - |
| 1777341251 | 10.56° C | 39% | 1015.1 hPa | 0 mm | - | 39 W/m² | - |
| 1777340947 | 10.56° C | 39% | 1014.8 hPa | 0 mm | - | 40 W/m² | - |
| 1777340646 | 10.56° C | 38% | 1015 hPa | 0 mm | - | 39 W/m² | - |
| 1777340343 | 10.56° C | 38% | 1015.1 hPa | 0 mm | - | 38 W/m² | - |
| 1777340040 | 10° C | 39% | 1015 hPa | 0 mm | - | 40 W/m² | - |
| 1777339737 | 10.56° C | 38% | 1015.1 hPa | 0 mm | - | 43 W/m² | - |
| 1777339435 | 11.11° C | 38% | 1015.1 hPa | 0 mm | - | 46 W/m² | - |
| 1777339132 | 11.67° C | 39% | 1014.7 hPa | 0 mm | - | 50 W/m² | - |
* Rain latest hour (hover to see other rain measurements)
** Current wind speed in m/s (hover to see current wind gust speed)